Time;durP1;ratioP1;P1;durP2;ratioP2;P2;SDS_P1;SDS_P2;PMS_P1;PMS_P2;Temp;Humidity;BMP_temperature;BMP_pressure;BME280_temperature;BME280_humidity;BME280_pressure;Samples;Min_cycle;Max_cycle;Signal;HPM_P1;HPM_P2
2021/07/11 00:02:18;;;;;;;;;;;;;;;-142.75;66.29;76714.00;5056076;28;19970;-78
2021/07/11 00:04:43;;;;;;;;;;;;;;;-142.75;66.58;76706.13;5053106;28;19920;-78
2021/07/11 00:07:11;;;;;;;;;;;;;;;-142.75;66.82;76698.25;5056334;28;20003;-78
2021/07/11 00:09:36;;;;;;;;;;;;;;;-142.75;66.83;76696.28;5063584;28;20361;-77
2021/07/11 00:12:01;;;;;;;;;;;;;;;-142.75;66.64;76698.25;5052959;28;19920;-78
2021/07/11 00:14:26;;;;;;;;;;;;;;;-142.75;66.47;76698.25;5062520;28;20004;-78
2021/07/11 00:16:52;;;;;;;;;;;;;;;-142.75;66.25;76688.41;5055136;28;19924;-78
2021/07/11 00:19:17;;;;;;;;;;;;;;;-142.75;66.03;76678.56;5057861;28;19923;-78
2021/07/11 00:21:42;;;;;;;;;;;;;;;-142.75;66.13;76672.66;5063457;28;19917;-78
2021/07/11 00:24:07;;;;;;;;;;;;;;;-142.75;66.36;76676.59;5064253;28;19944;-77
2021/07/11 00:26:33;;;;;;;;;;;;;;;-142.75;67.01;76684.47;5053856;28;19917;-78
2021/07/11 00:28:58;;;;;;;;;;;;;;;-142.75;66.80;76684.47;5058441;28;19970;-77
2021/07/11 00:31:23;;;;;;;;;;;;;;;-142.75;66.39;76686.44;5054129;28;20003;-79
2021/07/11 00:33:48;;;;;;;;;;;;;;;-142.75;66.72;76688.41;5053607;28;20487;-78
2021/07/11 00:36:13;;;;;;;;;;;;;;;-142.75;66.93;76690.38;5054364;28;19935;-79
2021/07/11 00:38:39;;;;;;;;;;;;;;;-142.75;66.45;76686.44;5068844;28;19917;-76
2021/07/11 00:41:04;;;;;;;;;;;;;;;-142.75;66.42;76690.38;5065511;28;20375;-78
2021/07/11 00:43:29;;;;;;;;;;;;;;;-142.75;66.31;76678.56;5060580;28;19932;-77
2021/07/11 00:45:54;;;;;;;;;;;;;;;-142.75;66.39;76680.53;5062329;28;19960;-78
2021/07/11 00:48:20;;;;;;;;;;;;;;;-142.75;66.40;76682.50;5068301;28;19940;-78
2021/07/11 00:50:45;;;;;;;;;;;;;;;-142.75;66.35;76680.53;5066242;28;19970;-79
2021/07/11 00:53:11;;;;;;;;;;;;;;;-142.75;66.60;76678.56;5054918;28;20029;-79
2021/07/11 00:55:36;;;;;;;;;;;;;;;-142.75;66.73;76678.56;5065065;28;19921;-77
2021/07/11 00:58:02;;;;;;;;;;;;;;;-142.75;66.61;76680.53;5069755;28;19917;-78
2021/07/11 01:00:27;;;;;;;;;;;;;;;-142.75;66.49;76686.44;5068792;28;19960;-78
2021/07/11 01:03:01;;;;;;;;;;;;;;;-142.75;66.54;76686.44;5058100;28;19920;-78
2021/07/11 01:05:28;;;;;;;;;;;;;;;-142.75;66.68;76684.47;5054966;28;19950;-77
2021/07/11 01:07:56;;;;;;;;;;;;;;;-142.75;66.79;76684.47;5054749;28;19923;-78
2021/07/11 01:10:24;;;;;;;;;;;;;;;-142.75;66.79;76680.53;5058380;28;19924;-77
2021/07/11 01:12:50;;;;;;;;;;;;;;;-142.75;66.64;76690.38;5054747;28;20386;-78
2021/07/11 01:15:16;;;;;;;;;;;;;;;-142.75;66.61;76686.44;5054542;28;19916;-77
2021/07/11 01:17:41;;;;;;;;;;;;;;;-142.75;66.78;76688.41;5071587;28;19920;-79
2021/07/11 01:20:15;;;;;;;;;;;;;;;-142.75;66.52;76688.41;5052083;28;20306;-77
2021/07/11 01:22:46;;;;;;;;;;;;;;;-142.75;66.45;76692.34;5057328;28;19944;-78
2021/07/11 01:25:13;;;;;;;;;;;;;;;-142.75;66.50;76688.41;5052453;28;19948;-78
2021/07/11 01:27:39;;;;;;;;;;;;;;;-142.75;66.64;76684.47;5055254;28;19950;-79
2021/07/11 01:30:06;;;;;;;;;;;;;;;-142.75;66.44;76688.41;5072041;28;20563;-77
2021/07/11 01:32:34;;;;;;;;;;;;;;;-142.75;66.59;76688.41;5054212;28;19924;-78
2021/07/11 01:35:00;;;;;;;;;;;;;;;-142.75;66.64;76688.41;5072169;28;19923;-77
2021/07/11 01:37:26;;;;;;;;;;;;;;;-142.75;66.61;76684.47;5053905;28;19935;-76
2021/07/11 01:39:52;;;;;;;;;;;;;;;-142.75;66.61;76684.47;5053862;28;19917;-77
2021/07/11 01:42:19;;;;;;;;;;;;;;;-142.75;66.67;76684.47;5051999;28;19928;-78
2021/07/11 01:44:44;;;;;;;;;;;;;;;-142.75;66.54;76686.44;5050790;28;20015;-78
2021/07/11 01:47:10;;;;;;;;;;;;;;;-142.75;66.52;76688.41;5063508;28;19999;-77
2021/07/11 01:49:35;;;;;;;;;;;;;;;-142.75;66.67;76688.41;5053816;28;19916;-77
2021/07/11 01:52:01;;;;;;;;;;;;;;;-142.75;66.71;76688.41;5050959;28;19917;-77
2021/07/11 01:54:28;;;;;;;;;;;;;;;-142.75;66.79;76684.47;5050414;28;20309;-77
2021/07/11 01:56:53;;;;;;;;;;;;;;;-142.75;66.82;76688.41;5064098;28;19921;-77
2021/07/11 01:59:18;;;;;;;;;;;;;;;-142.75;66.82;76692.34;5051504;28;20393;-77
2021/07/11 02:01:43;;;;;;;;;;;;;;;-142.75;66.86;76692.34;5061215;28;20367;-78
2021/07/11 02:04:08;;;;;;;;;;;;;;;-142.75;67.06;76690.38;5050431;28;19917;-77
2021/07/11 02:06:35;;;;;;;;;;;;;;;-142.75;67.30;76692.34;5051681;28;19924;-77
2021/07/11 02:09:01;;;;;;;;;;;;;;;-142.75;67.44;76688.41;5054737;28;19916;-77
2021/07/11 02:11:26;;;;;;;;;;;;;;;-142.75;67.59;76692.34;5053313;28;20587;-77
2021/07/11 02:13:54;;;;;;;;;;;;;;;-142.75;67.58;76690.38;5053028;28;19923;-77
2021/07/11 02:16:22;;;;;;;;;;;;;;;-142.75;67.32;76694.31;5071294;28;19928;-78
2021/07/11 02:18:49;;;;;;;;;;;;;;;-142.75;67.47;76692.34;5071379;28;20003;-78
2021/07/11 02:21:14;;;;;;;;;;;;;;;-142.75;67.47;76692.34;5067035;28;20305;-78
2021/07/11 02:23:39;;;;;;;;;;;;;;;-142.75;67.27;76694.31;5060808;28;19923;-77
2021/07/11 02:26:06;;;;;;;;;;;;;;;-142.75;66.92;76696.28;5050001;28;19924;-76
2021/07/11 02:28:32;;;;;;;;;;;;;;;-142.75;67.14;76692.34;5050088;28;19917;-78
2021/07/11 02:31:00;;;;;;;;;;;;;;;-142.75;66.82;76694.31;5050873;28;19917;-78
2021/07/11 02:33:35;;;;;;;;;;;;;;;-142.75;66.77;76688.41;5059480;28;19922;-78
2021/07/11 02:36:02;;;;;;;;;;;;;;;-142.75;66.75;76690.38;5071085;28;19921;-78
2021/07/11 02:38:35;;;;;;;;;;;;;;;-142.75;66.92;76692.34;5058872;28;19932;-78
2021/07/11 02:41:01;;;;;;;;;;;;;;;-142.75;66.83;76696.28;5052761;28;19924;-77
2021/07/11 02:43:26;;;;;;;;;;;;;;;-142.75;66.79;76700.22;5053092;28;19986;-77
2021/07/11 02:45:51;;;;;;;;;;;;;;;-142.75;66.91;76696.28;5053049;28;19917;-77
2021/07/11 02:48:17;;;;;;;;;;;;;;;-142.75;67.13;76700.22;5054039;28;19962;-77
2021/07/11 02:50:44;;;;;;;;;;;;;;;-142.75;67.06;76700.22;5052641;28;19916;-77
2021/07/11 02:53:10;;;;;;;;;;;;;;;-142.75;66.91;76696.28;5049569;28;19924;-78
2021/07/11 02:55:37;;;;;;;;;;;;;;;-142.75;66.95;76698.25;5052342;28;19925;-77
2021/07/11 02:58:06;;;;;;;;;;;;;;;-142.75;66.42;76694.31;5048985;28;20390;-78
2021/07/11 03:00:32;;;;;;;;;;;;;;;-142.75;66.49;76690.38;5049001;28;19924;-77
2021/07/11 03:02:57;;;;;;;;;;;;;;;-142.75;66.73;76688.41;5052000;28;19916;-77
2021/07/11 03:05:24;;;;;;;;;;;;;;;-142.75;66.73;76688.41;5056490;28;19917;-76
2021/07/11 03:07:49;;;;;;;;;;;;;;;-142.75;66.81;76700.22;5069856;28;19920;-77
2021/07/11 03:10:15;;;;;;;;;;;;;;;-142.75;66.92;76704.16;5057665;28;20444;-78
2021/07/11 03:12:41;;;;;;;;;;;;;;;-142.75;67.01;76704.16;5052934;28;19923;-78
2021/07/11 03:15:06;;;;;;;;;;;;;;;-142.75;67.22;76712.03;5070038;28;20425;-78
2021/07/11 03:17:32;;;;;;;;;;;;;;;-142.75;67.46;76715.97;5066100;28;19927;-77
2021/07/11 03:19:58;;;;;;;;;;;;;;;-142.75;67.45;76719.91;5050764;28;20405;-77
2021/07/11 03:22:25;;;;;;;;;;;;;;;-142.75;67.51;76721.88;5066077;28;19917;-77
2021/07/11 03:24:50;;;;;;;;;;;;;;;-142.75;67.81;76731.72;5053848;28;19927;-78
2021/07/11 03:27:17;;;;;;;;;;;;;;;-142.75;67.71;76727.78;5056863;28;19916;-78
2021/07/11 03:30:01;;;;;;;;;;;;;;;-142.75;67.62;76731.72;5055500;28;19920;-78
2021/07/11 03:32:27;;;;;;;;;;;;;;;-142.75;67.66;76735.66;5057561;28;20467;-77
2021/07/11 03:34:53;;;;;;;;;;;;;;;-142.75;67.32;76731.72;5071073;28;19917;-78
2021/07/11 03:37:19;;;;;;;;;;;;;;;-142.75;67.13;76729.75;5065064;28;19936;-77
2021/07/11 03:39:47;;;;;;;;;;;;;;;-142.75;67.23;76729.75;5067384;28;19940;-77
2021/07/11 03:42:13;;;;;;;;;;;;;;;-142.75;67.31;76727.78;5062331;28;19917;-77
2021/07/11 03:44:40;;;;;;;;;;;;;;;-142.75;67.39;76731.72;5053176;28;19923;-79
2021/07/11 03:47:09;;;;;;;;;;;;;;;-142.75;67.35;76725.81;5052876;28;20016;-77
2021/07/11 03:49:36;;;;;;;;;;;;;;;-142.75;67.53;76731.72;5054741;28;20375;-78
2021/07/11 03:52:03;;;;;;;;;;;;;;;-142.75;68.00;76741.56;5052579;28;19928;-77
2021/07/11 03:54:29;;;;;;;;;;;;;;;-142.75;68.01;76755.34;5069922;28;19962;-77
2021/07/11 03:56:54;;;;;;;;;;;;;;;-142.75;68.33;76767.16;5053014;28;19925;-77
2021/07/11 03:59:21;;;;;;;;;;;;;;;-142.75;68.46;76778.97;5055711;28;19999;-77
2021/07/11 04:01:47;;;;;;;;;;;;;;;-142.75;68.73;76777.00;5058490;28;20352;-77
2021/07/11 04:04:15;;;;;;;;;;;;;;;-142.75;68.76;76771.09;5068235;28;19917;-77
2021/07/11 04:06:44;;;;;;;;;;;;;;;-142.75;68.75;76775.03;5058278;28;20004;-77
2021/07/11 04:09:11;;;;;;;;;;;;;;;-142.75;69.07;76775.03;5052469;28;19924;-77
2021/07/11 04:11:36;;;;;;;;;;;;;;;-142.75;69.34;76784.88;5070419;28;19916;-77
2021/07/11 04:14:02;;;;;;;;;;;;;;;-142.75;69.81;76794.69;5051157;28;20306;-76
2021/07/11 04:16:28;;;;;;;;;;;;;;;-142.75;69.93;76794.69;5064398;28;20302;-77
2021/07/11 04:18:56;;;;;;;;;;;;;;;-142.75;70.18;76800.63;5059749;28;19924;-77
2021/07/11 04:21:22;;;;;;;;;;;;;;;-142.75;70.35;76804.53;5054085;28;19916;-78
2021/07/11 04:23:48;;;;;;;;;;;;;;;-142.75;70.60;76806.50;5052841;28;19923;-77
2021/07/11 04:26:14;;;;;;;;;;;;;;;-142.75;71.02;76810.44;5051173;28;19969;-78
2021/07/11 04:28:42;;;;;;;;;;;;;;;-142.75;70.61;76810.44;5056902;28;19995;-78
2021/07/11 04:31:07;;;;;;;;;;;;;;;-142.75;70.79;76800.63;5056829;28;19916;-78
2021/07/11 04:33:33;;;;;;;;;;;;;;;-142.75;70.67;76790.78;5053946;28;20402;-77
2021/07/11 04:35:58;;;;;;;;;;;;;;;-142.75;70.49;76788.81;5071056;28;19924;-77
2021/07/11 04:38:24;;;;;;;;;;;;;;;-142.75;70.41;76777.00;5054190;28;20003;-76
2021/07/11 04:40:49;;;;;;;;;;;;;;;-142.75;70.49;76775.03;5071839;28;20017;-78
2021/07/11 04:43:16;;;;;;;;;;;;;;;-142.75;70.35;76767.16;5053978;28;19982;-77
2021/07/11 04:45:42;;;;;;;;;;;;;;;-142.75;70.30;76777.00;5064161;28;19917;-78
2021/07/11 04:48:07;;;;;;;;;;;;;;;-142.75;70.56;76782.91;5057888;28;20278;-78
2021/07/11 04:50:32;;;;;;;;;;;;;;;-142.75;70.67;76778.97;5050371;28;19923;-77
2021/07/11 04:52:58;;;;;;;;;;;;;;;-142.75;70.61;76759.28;5050581;28;19971;-78
2021/07/11 04:55:23;;;;;;;;;;;;;;;-142.75;70.42;76755.34;5050308;28;19917;-77
2021/07/11 04:57:48;;;;;;;;;;;;;;;-142.75;70.40;76755.34;5050491;28;19928;-77
2021/07/11 05:00:14;;;;;;;;;;;;;;;-142.75;70.37;76759.28;4990977;28;1778957;-77
2021/07/11 05:02:40;;;;;;;;;;;;;;;-142.75;69.76;76759.28;5072824;28;19959;-78
2021/07/11 05:05:06;;;;;;;;;;;;;;;-142.75;69.85;76751.41;5071646;28;20339;-78
2021/07/11 05:07:32;;;;;;;;;;;;;;;-142.75;71.09;76747.47;5054973;28;20298;-77
2021/07/11 05:09:57;;;;;;;;;;;;;;;-142.75;71.50;76735.66;5071082;28;19924;-78
2021/07/11 05:12:22;;;;;;;;;;;;;;;-142.75;70.39;76737.63;5062057;28;19960;-78
2021/07/11 05:14:48;;;;;;;;;;;;;;;-142.75;70.92;76723.84;5051423;28;19924;-77
2021/07/11 05:17:13;;;;;;;;;;;;;;;-142.75;70.29;76712.03;5051288;28;20459;-77
2021/07/11 05:19:38;;;;;;;;;;;;;;;-142.75;69.97;76710.06;5070414;28;19924;-78
2021/07/11 05:22:04;;;;;;;;;;;;;;;-142.75;70.31;76688.41;5072000;28;19916;-76
2021/07/11 05:24:29;;;;;;;;;;;;;;;-142.75;69.21;76688.41;5054419;28;19916;-77
2021/07/11 05:26:54;;;;;;;;;;;;;;;-142.75;69.19;76682.50;5072305;28;20027;-78
2021/07/11 05:29:20;;;;;;;;;;;;;;;-142.75;68.92;76692.34;5059706;28;19925;-77
2021/07/11 05:31:45;;;;;;;;;;;;;;;-142.75;69.47;76704.16;5054027;28;19920;-78
2021/07/11 05:34:10;;;;;;;;;;;;;;;-142.75;70.28;76712.03;5054324;28;19916;-78
2021/07/11 05:36:35;;;;;;;;;;;;;;;-142.75;70.07;76696.28;5054087;28;20294;-77
2021/07/11 05:39:00;;;;;;;;;;;;;;;-142.75;69.84;76676.59;5071959;28;19916;-78
2021/07/11 05:41:25;;;;;;;;;;;;;;;-142.75;69.49;76660.84;5068101;28;19921;-78
2021/07/11 05:43:51;;;;;;;;;;;;;;;-142.75;68.86;76645.09;5063353;28;20297;-78
2021/07/11 05:46:16;;;;;;;;;;;;;;;-142.75;68.48;76633.28;5057363;28;19924;-78
2021/07/11 05:48:41;;;;;;;;;;;;;;;-142.75;68.62;76621.47;5067267;28;20410;-77
2021/07/11 05:51:06;;;;;;;;;;;;;;;-142.75;67.70;76623.44;5059873;28;19921;-76
2021/07/11 05:53:31;;;;;;;;;;;;;;;-142.75;66.78;76635.25;5053133;28;19923;-77
2021/07/11 05:55:56;;;;;;;;;;;;;;;-142.75;66.44;76617.53;5050493;28;19921;-77
2021/07/11 05:58:22;;;;;;;;;;;;;;;-142.75;66.46;76615.56;5065415;28;20344;-75
2021/07/11 06:00:47;;;;;;;;;;;;;;;-142.75;66.61;76613.59;5051158;28;20016;-77
2021/07/11 06:03:12;;;;;;;;;;;;;;;-142.75;66.96;76613.59;5051674;28;19917;-77
2021/07/11 06:05:38;;;;;;;;;;;;;;;-142.75;67.06;76615.56;5050338;28;21325;-77
2021/07/11 06:08:06;;;;;;;;;;;;;;;-142.75;67.19;76625.41;5054339;28;19963;-77
2021/07/11 06:10:31;;;;;;;;;;;;;;;-142.75;67.52;76627.38;5049778;28;19939;-77
2021/07/11 06:12:56;;;;;;;;;;;;;;;-142.75;67.36;76635.25;5048004;28;20015;-75
2021/07/11 06:15:21;;;;;;;;;;;;;;;-142.75;67.20;76627.38;5050067;28;19970;-77
2021/07/11 06:17:47;;;;;;;;;;;;;;;-142.75;67.39;76629.34;5057419;28;19928;-77
2021/07/11 06:20:12;;;;;;;;;;;;;;;-142.75;67.46;76629.34;5049571;28;19924;-76
2021/07/11 06:22:38;;;;;;;;;;;;;;;-142.75;67.05;76629.34;5066730;28;19916;-77
2021/07/11 06:25:07;;;;;;;;;;;;;;;-142.75;67.08;76635.25;5053414;28;19966;-77
2021/07/11 06:27:37;;;;;;;;;;;;;;;-142.75;67.19;76641.16;5049316;28;19917;-78
2021/07/11 06:30:12;;;;;;;;;;;;;;;-142.75;67.13;76645.09;5064367;28;19960;-76
2021/07/11 06:32:38;;;;;;;;;;;;;;;-142.75;67.06;76645.09;5052228;28;19917;-78
2021/07/11 06:35:04;;;;;;;;;;;;;;;-142.75;67.04;76652.97;5053179;28;20301;-77
2021/07/11 06:37:29;;;;;;;;;;;;;;;-142.75;67.13;76652.97;5057946;28;19927;-78
2021/07/11 06:39:55;;;;;;;;;;;;;;;-142.75;67.19;76654.94;5052931;28;20061;-76
2021/07/11 06:42:20;;;;;;;;;;;;;;;-142.75;66.98;76660.84;5050211;28;19952;-77
2021/07/11 06:44:45;;;;;;;;;;;;;;;-142.75;66.93;76660.84;5057066;28;19932;-77
2021/07/11 06:47:10;;;;;;;;;;;;;;;-142.75;66.87;76664.78;5053048;28;19928;-77
2021/07/11 06:49:36;;;;;;;;;;;;;;;-142.75;67.01;76660.84;5067988;28;20416;-76
2021/07/11 06:52:02;;;;;;;;;;;;;;;-142.75;67.02;76660.84;5067580;28;19917;-77
2021/07/11 06:54:27;;;;;;;;;;;;;;;-142.75;66.81;76658.88;5071293;28;19929;-79
2021/07/11 06:56:52;;;;;;;;;;;;;;;-142.75;66.80;76651.00;5062929;28;19921;-78
2021/07/11 06:59:17;;;;;;;;;;;;;;;-142.75;66.70;76651.00;5069334;28;19916;-78
2021/07/11 07:01:42;;;;;;;;;;;;;;;-142.75;66.69;76662.81;5056887;28;19978;-77
2021/07/11 07:04:07;;;;;;;;;;;;;;;-142.75;66.79;76662.81;5057137;28;19952;-77
2021/07/11 07:06:33;;;;;;;;;;;;;;;-142.75;67.05;76658.88;5067057;28;19917;-77
2021/07/11 07:08:58;;;;;;;;;;;;;;;-142.75;66.79;76652.97;5057969;28;19970;-77
2021/07/11 07:11:23;;;;;;;;;;;;;;;-142.75;66.48;76652.97;5072185;28;19999;-77
2021/07/11 07:13:48;;;;;;;;;;;;;;;-142.75;66.68;76656.91;5065195;28;19916;-77
2021/07/11 07:16:13;;;;;;;;;;;;;;;-142.75;66.85;76654.94;5069460;28;19944;-77
2021/07/11 07:18:39;;;;;;;;;;;;;;;-142.75;66.82;76641.16;5071370;28;19917;-77
2021/07/11 07:21:04;;;;;;;;;;;;;;;-142.75;66.69;76621.47;5057744;28;19917;-78
2021/07/11 07:23:29;;;;;;;;;;;;;;;-142.75;66.73;76609.66;5055569;28;19917;-78
2021/07/11 07:25:54;;;;;;;;;;;;;;;-142.75;65.72;76597.84;5055074;28;19916;-76
2021/07/11 07:28:19;;;;;;;;;;;;;;;-142.75;65.29;76586.03;5060486;28;19974;-78
2021/07/11 07:30:45;;;;;;;;;;;;;;;-142.75;64.78;76574.22;5048419;28;20364;-77
2021/07/11 07:33:10;;;;;;;;;;;;;;;-142.75;65.04;76554.53;5053641;28;19917;-78
2021/07/11 07:35:35;;;;;;;;;;;;;;;-142.75;63.66;76542.72;5041168;28;19985;-79
2021/07/11 07:38:00;;;;;;;;;;;;;;;-142.75;63.88;76542.72;5054348;28;20409;-78
2021/07/11 07:40:25;;;;;;;;;;;;;;;-142.75;64.20;76536.84;5053086;28;20011;-78
2021/07/11 07:42:51;;;;;;;;;;;;;;;-142.75;63.79;76540.75;5068629;28;20311;-78
2021/07/11 07:45:17;;;;;;;;;;;;;;;-142.75;63.20;76525.03;5056435;28;19920;-78
2021/07/11 07:47:42;;;;;;;;;;;;;;;-142.75;63.02;76521.09;5056347;28;19916;-77
2021/07/11 07:50:08;;;;;;;;;;;;;;;-142.75;63.24;76515.19;5055838;28;19916;-78
2021/07/11 07:52:34;;;;;;;;;;;;;;;-142.75;63.31;76511.25;5053627;28;20374;-77
2021/07/11 07:54:59;;;;;;;;;;;;;;;-142.75;62.54;76493.53;5067355;28;19916;-78
2021/07/11 07:57:24;;;;;;;;;;;;;;;-142.75;62.78;76489.59;5056534;28;20138;-77
2021/07/11 07:59:50;;;;;;;;;;;;;;;-142.75;62.67;76487.63;5072762;28;19920;-79
2021/07/11 08:02:15;;;;;;;;;;;;;;;-142.75;62.61;76489.59;5057073;28;19924;-78
2021/07/11 08:04:42;;;;;;;;;;;;;;;-142.75;62.12;76495.50;5053106;28;19924;-77
2021/07/11 08:07:07;;;;;;;;;;;;;;;-142.75;62.58;76485.66;5053821;28;20010;-77
2021/07/11 08:09:32;;;;;;;;;;;;;;;-142.75;63.02;76483.69;5055868;28;20415;-78
2021/07/11 08:11:57;;;;;;;;;;;;;;;-142.75;63.31;76487.63;5072431;28;19916;-78
2021/07/11 08:14:23;;;;;;;;;;;;;;;-142.75;63.09;76487.63;5064545;28;19979;-77
2021/07/11 08:16:48;;;;;;;;;;;;;;;-142.75;62.98;76475.81;5055713;28;19921;-77
2021/07/11 08:19:13;;;;;;;;;;;;;;;-142.75;62.29;76448.25;5073920;28;19923;-77
2021/07/11 08:21:38;;;;;;;;;;;;;;;-142.75;61.87;76416.75;5055427;28;20329;-77
2021/07/11 08:24:03;;;;;;;;;;;;;;;-142.75;60.79;76385.25;5052600;28;19917;-77
2021/07/11 08:26:31;;;;;;;;;;;;;;;-142.75;60.66;76361.63;5061817;28;20019;-77
2021/07/11 08:28:56;;;;;;;;;;;;;;;-142.75;59.60;76345.91;5059556;28;19921;-79
2021/07/11 08:31:22;;;;;;;;;;;;;;;-142.75;58.35;76324.25;5068583;28;19923;-77
2021/07/11 08:33:47;;;;;;;;;;;;;;;-142.75;58.24;76294.72;5063839;28;19916;-77
2021/07/11 08:36:12;;;;;;;;;;;;;;;-142.75;57.57;76239.59;5052034;28;20340;-76
2021/07/11 08:38:37;;;;;;;;;;;;;;;-142.75;55.42;76133.31;5063068;28;19916;-78
2021/07/11 08:41:02;;;;;;;;;;;;;;;-142.75;54.11;75975.84;5060492;28;19940;-78
2021/07/11 08:43:28;;;;;;;;;;;;;;;-142.75;50.89;75804.63;5053460;28;20397;-78
2021/07/11 08:45:54;;;;;;;;;;;;;;;-142.75;49.04;75674.72;5055087;28;20366;-78
2021/07/11 08:48:19;;;;;;;;;;;;;;;-142.75;47.30;75544.84;5057477;28;19916;-77
2021/07/11 08:50:44;;;;;;;;;;;;;;;-142.75;43.75;75452.34;5063521;28;19916;-78
2021/07/11 08:53:11;;;;;;;;;;;;;;;-142.75;43.21;75385.44;5055406;28;19917;-78
2021/07/11 08:55:36;;;;;;;;;;;;;;;-142.75;42.04;75291.00;5070078;28;19935;-78
2021/07/11 08:58:02;;;;;;;;;;;;;;;-142.75;40.57;75216.22;5072954;28;19928;-78
2021/07/11 09:00:32;;;;;;;;;;;;;;;-142.75;39.90;75178.81;5052703;28;19921;-79
2021/07/11 09:02:58;;;;;;;;;;;;;;;-142.75;39.04;75147.34;5053825;28;20324;-78
2021/07/11 09:05:25;;;;;;;;;;;;;;;-142.75;37.86;75106.00;5051713;28;19917;-78
2021/07/11 09:08:10;;;;;;;;;;;;;;;-142.75;39.55;75141.44;5050995;28;19917;-79
2021/07/11 09:10:38;;;;;;;;;;;;;;;-142.75;39.66;75165.03;5059179;28;20340;-81
2021/07/11 09:13:08;;;;;;;;;;;;;;;-142.75;38.85;75086.34;5053194;28;20440;-77
2021/07/11 09:15:35;;;;;;;;;;;;;;;-142.75;37.18;75037.16;5052814;28;19974;-78
2021/07/11 09:18:01;;;;;;;;;;;;;;;-142.75;37.19;75003.69;5052532;28;20453;-78
2021/07/11 09:20:26;;;;;;;;;;;;;;;-142.75;36.78;75039.13;5052742;28;19917;-77
2021/07/11 09:22:58;;;;;;;;;;;;;;;-142.75;37.15;75149.31;5065055;28;19939;-79
2021/07/11 09:25:23;;;;;;;;;;;;;;;-142.75;38.30;75184.72;5054009;28;20019;-79
2021/07/11 09:27:48;;;;;;;;;;;;;;;-142.75;39.00;75273.28;5053443;28;20003;-77
2021/07/11 09:30:15;;;;;;;;;;;;;;;-142.75;39.98;75281.16;5068432;28;19920;-78
2021/07/11 09:32:41;;;;;;;;;;;;;;;-142.75;40.28;75353.97;5071634;28;20279;-79
2021/07/11 09:35:07;;;;;;;;;;;;;;;-142.75;40.65;75444.47;5052205;28;19916;-77
2021/07/11 09:37:35;;;;;;;;;;;;;;;-142.75;42.35;75544.84;5063733;28;19961;-78
2021/07/11 09:40:00;;;;;;;;;;;;;;;-142.75;42.95;75639.31;5060674;28;19939;-78
2021/07/11 09:42:30;;;;;;;;;;;;;;;-142.75;44.21;75678.66;5053562;28;20698;-78
2021/07/11 09:44:55;;;;;;;;;;;;;;;-142.75;45.97;75690.47;5058603;28;19991;-77
2021/07/11 09:47:22;;;;;;;;;;;;;;;-142.75;45.51;75533.03;5052151;28;19928;-77
2021/07/11 09:50:02;;;;;;;;;;;;;;;-142.75;42.13;75385.44;5059052;28;20336;-77
2021/07/11 09:52:29;;;;;;;;;;;;;;;-142.75;39.77;75267.38;5061808;28;20344;-78
2021/07/11 09:54:59;;;;;;;;;;;;;;;-142.75;39.65;75298.84;5065852;28;19962;-78
2021/07/11 09:57:32;;;;;;;;;;;;;;;-142.75;40.78;75359.88;5061320;28;19944;-78
2021/07/11 10:00:09;;;;;;;;;;;;;;;-142.75;41.36;75428.75;5062502;28;19920;-77
2021/07/11 10:02:34;;;;;;;;;;;;;;;-142.75;41.86;75466.13;5047858;28;19921;-78
2021/07/11 10:05:00;;;;;;;;;;;;;;;-142.75;42.32;75487.78;5052389;28;19917;-77
2021/07/11 10:07:25;;;;;;;;;;;;;;;-142.75;43.00;75542.88;5061344;28;20252;-78
2021/07/11 10:09:51;;;;;;;;;;;;;;;-142.75;42.96;75605.84;5062416;28;19917;-77
2021/07/11 10:12:16;;;;;;;;;;;;;;;-142.75;44.07;75660.97;5054385;28;19928;-78
2021/07/11 10:14:41;;;;;;;;;;;;;;;-142.75;44.23;75704.25;5062466;28;20007;-78
2021/07/11 10:17:06;;;;;;;;;;;;;;;-142.75;45.98;75751.50;5059976;28;19929;-77
2021/07/11 10:19:32;;;;;;;;;;;;;;;-142.75;45.75;75782.97;5060329;28;19923;-78
2021/07/11 10:21:58;;;;;;;;;;;;;;;-142.75;46.26;75802.66;5066403;28;19964;-78
2021/07/11 10:24:23;;;;;;;;;;;;;;;-142.75;46.85;75828.25;5061065;28;19963;-78
2021/07/11 10:26:49;;;;;;;;;;;;;;;-142.75;47.24;75865.63;5055581;28;19960;-77
2021/07/11 10:29:15;;;;;;;;;;;;;;;-142.75;46.60;75869.56;5067883;28;19916;-77
2021/07/11 10:31:43;;;;;;;;;;;;;;;-142.75;47.57;75897.13;5052913;28;20003;-78
2021/07/11 10:34:08;;;;;;;;;;;;;;;-142.75;47.79;75930.59;5079698;22;19925;-75
2021/07/11 10:36:35;;;;;;;;;;;;;;;-142.75;49.00;75940.44;5048522;28;20302;-77
2021/07/11 10:39:01;;;;;;;;;;;;;;;-142.75;49.37;75969.94;5047093;28;20375;-75
2021/07/11 10:41:28;;;;;;;;;;;;;;;-142.75;50.67;76119.53;5048699;28;19916;-75
2021/07/11 10:44:03;;;;;;;;;;;;;;;-142.75;51.34;76127.41;5049089;28;20253;-76
2021/07/11 10:46:33;;;;;;;;;;;;;;;-142.75;51.54;76046.72;5049242;28;20442;-76
2021/07/11 10:49:08;;;;;;;;;;;;;;;-142.75;49.73;75999.47;5051182;28;19917;-76
2021/07/11 10:51:43;;;;;;;;;;;;;;;-142.75;48.56;75954.22;5050793;28;19939;-76
2021/07/11 10:54:26;;;;;;;;;;;;;;;-142.75;48.41;75912.88;5049646;28;20339;-76
2021/07/11 10:56:51;;;;;;;;;;;;;;;-142.75;48.88;75967.97;5051210;28;19968;-75
2021/07/11 10:59:35;;;;;;;;;;;;;;;-142.75;49.27;76027.03;5051006;28;20374;-74
2021/07/11 11:02:03;;;;;;;;;;;;;;;-142.75;50.59;76107.72;5050650;28;19923;-76
2021/07/11 11:04:28;;;;;;;;;;;;;;;-142.75;49.39;76062.47;5049337;28;20381;-76
2021/07/11 11:06:53;;;;;;;;;;;;;;;-142.75;50.46;76046.72;5051028;28;20019;-76
2021/07/11 11:09:35;;;;;;;;;;;;;;;-142.75;49.50;76046.72;5050946;28;20008;-76
2021/07/11 11:12:00;;;;;;;;;;;;;;;-142.75;49.92;76078.19;5050476;28;20015;-76
2021/07/11 11:14:26;;;;;;;;;;;;;;;-142.75;50.51;76054.59;5031735;28;20003;-75
2021/07/11 11:16:52;;;;;;;;;;;;;;;-142.75;50.50;76005.38;5050641;28;19967;-75
2021/07/11 11:19:17;;;;;;;;;;;;;;;-142.75;49.99;75969.94;5032815;28;19920;-75
2021/07/11 11:21:42;;;;;;;;;;;;;;;-142.75;49.38;75944.38;5050422;28;20456;-77
2021/07/11 11:24:07;;;;;;;;;;;;;;;-142.75;48.91;75908.94;5050666;28;19924;-75
2021/07/11 11:26:33;;;;;;;;;;;;;;;-142.75;48.66;75901.06;5050821;28;19921;-75
2021/07/11 11:29:00;;;;;;;;;;;;;;;-142.75;48.26;75897.13;5050668;28;19916;-76
2021/07/11 11:31:26;;;;;;;;;;;;;;;-142.75;48.00;75905.00;5032657;28;19961;-76
2021/07/11 11:33:59;;;;;;;;;;;;;;;-142.75;47.71;75853.84;5050379;28;20374;-77
2021/07/11 11:36:25;;;;;;;;;;;;;;;-142.75;46.51;75828.25;5032692;28;19927;-77
2021/07/11 11:38:51;;;;;;;;;;;;;;;-142.75;47.01;75836.13;5032780;28;19995;-75
2021/07/11 11:41:19;;;;;;;;;;;;;;;-142.75;47.27;75871.53;5050373;28;20036;-76
2021/07/11 11:43:47;;;;;;;;;;;;;;;-142.75;48.12;75861.69;5050740;28;19924;-77
2021/07/11 11:46:22;;;;;;;;;;;;;;;-142.75;47.27;75873.50;5053344;28;19917;-76
2021/07/11 11:48:57;;;;;;;;;;;;;;;-142.75;45.60;75897.13;5054172;28;19916;-75
2021/07/11 11:51:23;;;;;;;;;;;;;;;-142.75;46.04;75916.81;5054113;28;20544;-76
2021/07/11 11:53:48;;;;;;;;;;;;;;;-142.75;46.38;75908.94;5054201;28;19935;-75
2021/07/11 11:56:16;;;;;;;;;;;;;;;-142.75;46.96;75905.00;5036112;28;20016;-76
2021/07/11 11:58:41;;;;;;;;;;;;;;;-142.75;46.85;75881.38;5050354;28;19971;-76
2021/07/11 12:01:08;;;;;;;;;;;;;;;-142.75;44.74;75826.28;5053686;28;19917;-75
2021/07/11 12:03:37;;;;;;;;;;;;;;;-142.75;45.08;75808.56;5053831;28;19924;-77
2021/07/11 12:06:03;;;;;;;;;;;;;;;-142.75;46.47;75800.69;5054501;28;19952;-76
2021/07/11 12:08:28;;;;;;;;;;;;;;;-142.75;45.46;75786.91;5053801;28;19959;-76
2021/07/11 12:10:54;;;;;;;;;;;;;;;-142.75;45.55;75775.09;5053112;28;19947;-76
2021/07/11 12:13:23;;;;;;;;;;;;;;;-142.75;45.65;75779.03;5053313;28;19940;-76
2021/07/11 12:15:49;;;;;;;;;;;;;;;-142.75;45.80;75800.69;5053595;28;19924;-76
2021/07/11 12:18:14;;;;;;;;;;;;;;;-142.75;45.89;75786.91;5053765;28;19928;-75
2021/07/11 12:20:47;;;;;;;;;;;;;;;-142.75;45.10;75786.91;5053394;28;19974;-76
2021/07/11 12:23:13;;;;;;;;;;;;;;;-142.75;44.82;75777.06;5053498;28;19924;-75